Time;durP1;ratioP1;P1;durP2;ratioP2;P2;SDS_P1;SDS_P2;PMS_P1;PMS_P2;Temp;Humidity;BMP_temperature;BMP_pressure;BME280_temperature;BME280_humidity;BME280_pressure;Samples;Min_cycle;Max_cycle;Signal;HPM_P1;HPM_P2
2023/04/14 00:01:48;;;;;;;1.50;1.30;;;7.20;98.20;;;;;;5021871;28;20478;-76
2023/04/14 00:04:15;;;;;;;1.50;1.33;;;7.10;98.20;;;;;;5018660;28;20989;-76
2023/04/14 00:06:42;;;;;;;1.50;1.30;;;7.10;98.20;;;;;;5022323;28;20474;-76
2023/04/14 00:09:09;;;;;;;1.53;1.37;;;7.00;98.20;;;;;;5037264;28;20474;-76
2023/04/14 00:11:37;;;;;;;1.50;1.30;;;7.00;98.20;;;;;;5022175;28;20761;-76
2023/04/14 00:14:04;;;;;;;1.60;1.40;;;7.00;98.20;;;;;;5032561;28;20480;-76
2023/04/14 00:16:31;;;;;;;1.60;1.40;;;7.00;98.20;;;;;;5021501;28;20478;-75
2023/04/14 00:18:58;;;;;;;1.50;1.20;;;6.90;98.20;;;;;;5035764;28;20981;-76
2023/04/14 00:21:25;;;;;;;1.53;1.30;;;6.90;98.20;;;;;;5006689;28;20479;-76
2023/04/14 00:23:52;;;;;;;1.50;1.20;;;6.90;98.20;;;;;;5022388;28;20484;-76
2023/04/14 00:26:19;;;;;;;1.53;1.30;;;6.80;98.20;;;;;;5016138;28;20490;-76
2023/04/14 00:28:47;;;;;;;1.50;1.20;;;6.80;98.20;;;;;;5033898;28;20467;-76
2023/04/14 00:31:14;;;;;;;1.50;1.30;;;6.70;98.20;;;;;;5013489;28;20926;-76
2023/04/14 00:33:41;;;;;;;1.50;1.30;;;6.70;98.20;;;;;;5033276;28;20475;-75
2023/04/14 00:36:08;;;;;;;1.60;1.30;;;6.70;98.20;;;;;;5018262;28;20479;-76
2023/04/14 00:38:35;;;;;;;1.50;1.30;;;6.60;98.20;;;;;;5028095;28;20976;-76
2023/04/14 00:41:01;;;;;;;1.50;1.30;;;6.60;98.20;;;;;;5016769;28;20943;-76
2023/04/14 00:43:28;;;;;;;1.60;1.30;;;6.50;98.20;;;;;;5034327;28;20910;-76
2023/04/14 00:45:56;;;;;;;1.60;1.40;;;6.50;98.20;;;;;;5013334;28;20812;-76
2023/04/14 00:48:23;;;;;;;1.57;1.30;;;6.50;98.20;;;;;;5040296;28;20678;-76
2023/04/14 00:50:51;;;;;;;1.50;1.30;;;6.40;98.20;;;;;;5018090;28;20471;-76
2023/04/14 00:53:18;;;;;;;1.50;1.27;;;6.40;98.20;;;;;;5040967;28;20506;-76
2023/04/14 00:55:45;;;;;;;1.50;1.20;;;6.30;98.20;;;;;;5024512;28;20491;-76
2023/04/14 00:58:14;;;;;;;1.50;1.30;;;6.30;98.20;;;;;;5019111;28;20921;-76
2023/04/14 01:00:41;;;;;;;1.50;1.30;;;6.30;98.20;;;;;;5027322;28;20463;-76
2023/04/14 01:03:09;;;;;;;1.50;1.30;;;6.20;98.20;;;;;;5040709;28;20850;-76
2023/04/14 01:05:36;;;;;;;1.50;1.30;;;6.20;98.20;;;;;;5032921;28;20455;-76
2023/04/14 01:08:03;;;;;;;1.50;1.30;;;6.20;98.20;;;;;;5042703;28;20477;-76
2023/04/14 01:10:35;;;;;;;1.53;1.30;;;6.20;98.20;;;;;;5025909;28;20834;-77
2023/04/14 01:13:15;;;;;;;1.50;1.30;;;6.20;98.20;;;;;;5032515;28;20629;-76
2023/04/14 01:15:47;;;;;;;1.60;1.40;;;6.20;98.20;;;;;;5024112;28;20459;-76
2023/04/14 01:18:25;;;;;;;1.57;1.30;;;6.20;98.20;;;;;;5001435;28;20491;-76
2023/04/14 01:20:56;;;;;;;1.50;1.30;;;6.20;98.20;;;;;;4992462;28;20468;-77
2023/04/14 01:23:26;;;;;;;1.60;1.50;;;6.20;98.20;;;;;;5012757;28;20602;-78
2023/04/14 01:26:18;;;;;;;1.53;1.30;;;6.20;98.20;;;;;;5017228;28;20521;-78
2023/04/14 01:29:15;;;;;;;1.50;1.30;;;6.20;98.20;;;;;;5013238;28;20516;-75
2023/04/14 01:31:47;;;;;;;1.57;1.30;;;6.20;98.20;;;;;;5003591;28;20479;-75
2023/04/14 01:34:17;;;;;;;1.50;1.20;;;6.20;98.20;;;;;;5014181;28;20471;-75
2023/04/14 01:36:47;;;;;;;1.50;1.27;;;6.10;98.20;;;;;;5004819;28;20487;-75
2023/04/14 01:39:20;;;;;;;1.50;1.30;;;6.00;98.20;;;;;;5008917;28;20983;-75
2023/04/14 01:41:52;;;;;;;1.57;1.37;;;6.00;98.20;;;;;;5004458;28;21018;-76
2023/04/14 01:44:21;;;;;;;1.60;1.40;;;6.00;98.20;;;;;;5033642;28;20470;-75
2023/04/14 01:46:50;;;;;;;1.53;1.30;;;5.90;98.20;;;;;;5029326;28;20478;-75
2023/04/14 01:49:19;;;;;;;1.57;1.30;;;5.90;98.20;;;;;;5038457;28;20498;-75
2023/04/14 01:51:46;;;;;;;1.50;1.40;;;5.90;98.20;;;;;;5021082;28;21034;-75
2023/04/14 01:54:16;;;;;;;1.60;1.30;;;5.90;98.20;;;;;;5034239;28;20964;-75
2023/04/14 01:56:44;;;;;;;1.53;1.30;;;5.90;98.20;;;;;;5020092;28;20516;-75
2023/04/14 01:59:12;;;;;;;1.50;1.40;;;5.90;98.20;;;;;;5038036;28;20546;-74
2023/04/14 02:01:40;;;;;;;1.50;1.30;;;5.90;98.20;;;;;;5019670;28;20536;-75
2023/04/14 02:04:09;;;;;;;1.50;1.33;;;5.90;98.20;;;;;;5035208;28;20487;-75
2023/04/14 02:06:37;;;;;;;1.50;1.30;;;5.90;98.20;;;;;;5028714;28;20484;-75
2023/04/14 02:09:09;;;;;;;1.60;1.50;;;5.90;98.20;;;;;;5043851;28;20485;-74
2023/04/14 02:11:37;;;;;;;1.50;1.30;;;5.90;98.20;;;;;;5020777;28;20925;-75
2023/04/14 02:14:06;;;;;;;1.50;1.30;;;5.90;98.20;;;;;;5035028;28;21047;-75
2023/04/14 02:16:34;;;;;;;1.60;1.40;;;5.90;98.20;;;;;;5019344;28;20929;-74
2023/04/14 02:19:03;;;;;;;1.57;1.30;;;5.90;98.20;;;;;;5036310;28;20462;-75
2023/04/14 02:21:34;;;;;;;1.50;1.30;;;5.90;98.20;;;;;;5023774;28;20496;-77
2023/04/14 02:24:01;;;;;;;1.57;1.30;;;5.90;98.20;;;;;;5042163;28;20495;-77
2023/04/14 02:26:32;;;;;;;1.50;1.30;;;5.80;98.20;;;;;;5022821;28;20490;-77
2023/04/14 02:29:06;;;;;;;1.50;1.33;;;5.80;98.20;;;;;;5033436;28;20483;-77
2023/04/14 02:31:35;;;;;;;1.50;1.30;;;5.70;98.20;;;;;;5024048;28;20504;-77
2023/04/14 02:34:06;;;;;;;1.50;1.30;;;5.70;98.20;;;;;;5039655;28;20503;-77
2023/04/14 02:36:42;;;;;;;1.50;1.30;;;5.80;98.20;;;;;;5021633;28;20482;-77
2023/04/14 02:39:17;;;;;;;1.50;1.20;;;5.80;98.20;;;;;;5027321;28;20974;-77
2023/04/14 02:41:46;;;;;;;1.50;1.40;;;5.70;98.20;;;;;;5022408;28;21004;-77
2023/04/14 02:44:18;;;;;;;1.53;1.30;;;5.70;98.20;;;;;;5032522;28;20966;-77
2023/04/14 02:46:52;;;;;;;1.50;1.20;;;5.70;98.20;;;;;;5016824;28;20970;-77
2023/04/14 02:49:21;;;;;;;1.50;1.30;;;5.70;98.20;;;;;;5031601;28;20466;-77
2023/04/14 02:51:51;;;;;;;1.70;1.60;;;5.70;98.20;;;;;;5019036;28;21186;-77
2023/04/14 02:54:19;;;;;;;1.60;1.40;;;5.70;98.20;;;;;;5029108;28;20465;-77
2023/04/14 02:56:47;;;;;;;1.50;1.23;;;5.70;98.20;;;;;;5020890;28;21075;-78
2023/04/14 02:59:14;;;;;;;1.50;1.30;;;5.60;98.20;;;;;;5037332;28;20933;-77
2023/04/14 03:01:41;;;;;;;1.57;1.40;;;5.60;98.20;;;;;;5024808;28;20517;-77
2023/04/14 03:04:08;;;;;;;1.50;1.30;;;5.60;98.20;;;;;;5038680;28;20475;-77
2023/04/14 03:06:36;;;;;;;1.50;1.30;;;5.60;98.20;;;;;;5025135;28;20478;-77
2023/04/14 03:09:05;;;;;;;1.50;1.30;;;5.60;98.20;;;;;;5037374;28;20487;-77
2023/04/14 03:11:34;;;;;;;1.60;1.50;;;5.60;98.20;;;;;;5010408;28;20479;-77
2023/04/14 03:14:02;;;;;;;1.50;1.30;;;5.60;98.20;;;;;;5031908;28;20494;-77
2023/04/14 03:16:31;;;;;;;1.50;1.30;;;5.60;98.20;;;;;;5025296;28;21068;-77
2023/04/14 03:18:59;;;;;;;1.60;1.40;;;5.60;98.20;;;;;;5040905;28;20460;-76
2023/04/14 03:21:28;;;;;;;1.50;1.30;;;5.50;98.20;;;;;;5020752;28;20486;-77
2023/04/14 03:23:55;;;;;;;1.50;1.30;;;5.50;98.20;;;;;;5028927;28;21111;-76
2023/04/14 03:26:27;;;;;;;1.53;1.30;;;5.50;98.20;;;;;;5018510;28;20533;-77
2023/04/14 03:28:56;;;;;;;1.50;1.30;;;5.40;98.20;;;;;;5038742;28;20881;-77
2023/04/14 03:31:30;;;;;;;1.60;1.40;;;5.40;98.20;;;;;;5016951;28;20479;-77
2023/04/14 03:33:59;;;;;;;1.50;1.30;;;5.40;98.20;;;;;;5022118;28;20783;-76
2023/04/14 03:36:27;;;;;;;1.50;1.30;;;5.40;98.20;;;;;;5016600;28;20511;-76
2023/04/14 03:38:57;;;;;;;1.57;1.40;;;5.40;98.20;;;;;;5033652;28;20490;-77
2023/04/14 03:41:26;;;;;;;1.57;1.30;;;5.40;98.20;;;;;;5020369;28;20486;-76
2023/04/14 03:43:55;;;;;;;1.57;1.40;;;5.40;98.20;;;;;;5037421;28;20486;-76
2023/04/14 03:46:23;;;;;;;8.23;7.70;;;5.40;98.20;;;;;;5021003;28;20489;-76
2023/04/14 03:48:50;;;;;;;1.60;1.37;;;5.30;98.20;;;;;;5038301;28;20505;-76
2023/04/14 03:51:20;;;;;;;1.50;1.30;;;5.30;98.20;;;;;;5019555;28;20786;-76
2023/04/14 03:53:48;;;;;;;1.60;1.40;;;5.30;98.20;;;;;;5024874;28;20512;-76
2023/04/14 03:56:17;;;;;;;1.57;1.30;;;5.20;98.20;;;;;;5019184;28;20475;-76
2023/04/14 03:58:48;;;;;;;1.60;1.40;;;5.20;98.20;;;;;;5029670;28;20456;-76
2023/04/14 04:01:15;;;;;;;1.53;1.30;;;5.10;98.20;;;;;;5020758;28;20488;-76
2023/04/14 04:03:43;;;;;;;1.50;1.30;;;5.10;98.20;;;;;;5032856;28;20482;-76
2023/04/14 04:06:10;;;;;;;1.50;1.30;;;5.10;98.20;;;;;;5017488;28;20485;-76
2023/04/14 04:08:40;;;;;;;1.50;1.30;;;5.10;98.20;;;;;;5047381;28;20572;-75
2023/04/14 04:11:08;;;;;;;1.57;1.30;;;5.10;98.20;;;;;;5016440;28;20527;-76
2023/04/14 04:13:36;;;;;;;1.50;1.30;;;5.10;98.20;;;;;;5030739;28;20479;-76
2023/04/14 04:16:08;;;;;;;1.60;1.47;;;5.10;98.20;;;;;;5033230;23;20495;-77
2023/04/14 04:18:38;;;;;;;1.50;1.40;;;5.10;98.20;;;;;;5024772;28;20455;-78
2023/04/14 04:21:07;;;;;;;1.53;1.30;;;5.10;98.20;;;;;;5007947;28;20458;-78
2023/04/14 04:23:36;;;;;;;1.50;1.30;;;5.00;98.20;;;;;;5028946;28;20466;-77
2023/04/14 04:26:03;;;;;;;1.57;1.40;;;5.00;98.20;;;;;;5011955;28;20476;-77
2023/04/14 04:28:31;;;;;;;1.57;1.30;;;5.00;98.20;;;;;;5032930;28;20491;-76
2023/04/14 04:31:00;;;;;;;1.57;1.37;;;5.00;98.20;;;;;;5009390;28;20464;-76
2023/04/14 04:33:30;;;;;;;1.50;1.30;;;5.00;98.20;;;;;;5030924;28;20991;-77
2023/04/14 04:35:57;;;;;;;1.60;1.40;;;5.00;98.20;;;;;;5011574;28;20494;-77
2023/04/14 04:38:24;;;;;;;1.53;1.40;;;5.00;98.20;;;;;;5032403;28;20839;-77
2023/04/14 04:40:51;;;;;;;1.60;1.50;;;5.00;98.20;;;;;;5010924;28;20906;-77
2023/04/14 04:43:18;;;;;;;1.60;1.40;;;5.00;98.20;;;;;;5023601;28;20474;-77
2023/04/14 04:45:59;;;;;;;1.50;1.23;;;5.00;98.20;;;;;;5017497;28;20543;-77
2023/04/14 04:48:27;;;;;;;1.50;1.30;;;5.00;98.20;;;;;;4990739;28;20511;-76
2023/04/14 04:50:54;;;;;;;1.50;1.30;;;5.00;98.20;;;;;;4995053;28;20495;-76
2023/04/14 04:53:21;;;;;;;1.53;1.30;;;5.00;98.20;;;;;;5002042;28;20996;-76
2023/04/14 04:55:47;;;;;;;1.53;1.30;;;5.00;98.20;;;;;;5001860;28;20487;-76
2023/04/14 04:58:14;;;;;;;1.60;1.40;;;5.00;98.20;;;;;;5008642;28;20469;-76
2023/04/14 05:00:42;;;;;;;1.60;1.30;;;5.00;98.20;;;;;;5005754;28;20881;-76
2023/04/14 05:03:09;;;;;;;1.57;1.30;;;5.00;98.20;;;;;;4999614;28;20476;-76
2023/04/14 05:05:37;;;;;;;1.50;1.30;;;5.00;98.20;;;;;;4999420;28;20504;-76
2023/04/14 05:08:04;;;;;;;1.60;1.30;;;5.00;98.20;;;;;;5025278;28;21007;-76
2023/04/14 05:10:34;;;;;;;1.50;1.30;;;5.10;98.20;;;;;;5025976;28;20474;-76
2023/04/14 05:13:00;;;;;;;1.53;1.30;;;5.10;98.20;;;;;;5016436;28;20574;-76
2023/04/14 05:15:27;;;;;;;1.50;1.30;;;5.10;98.20;;;;;;5024560;28;20483;-76
2023/04/14 05:17:54;;;;;;;1.53;1.30;;;5.20;98.20;;;;;;5026365;28;20486;-79
2023/04/14 05:20:21;;;;;;;1.60;1.40;;;5.20;98.20;;;;;;5024352;28;21023;-78
2023/04/14 05:22:49;;;;;;;1.53;1.40;;;5.20;98.20;;;;;;4999841;28;20480;-78
2023/04/14 05:25:16;;;;;;;1.53;1.40;;;5.20;98.20;;;;;;5004100;28;20569;-78
2023/04/14 05:27:43;;;;;;;1.60;1.50;;;5.20;98.20;;;;;;5007132;28;20478;-77
2023/04/14 05:30:11;;;;;;;1.53;1.30;;;5.20;98.20;;;;;;5009063;28;21146;-80
2023/04/14 05:32:38;;;;;;;1.50;1.27;;;5.30;98.20;;;;;;5000326;28;20514;-77
2023/04/14 05:35:06;;;;;;;1.60;1.40;;;5.20;98.20;;;;;;5012796;28;20475;-77
2023/04/14 05:37:33;;;;;;;1.53;1.30;;;5.30;98.20;;;;;;5007684;28;20489;-78
2023/04/14 05:40:02;;;;;;;1.53;1.30;;;5.30;98.20;;;;;;5003180;28;20766;-78
2023/04/14 05:42:29;;;;;;;1.60;1.40;;;5.40;98.20;;;;;;4987690;28;20578;-77
2023/04/14 05:44:56;;;;;;;1.60;1.50;;;5.50;98.20;;;;;;5002056;28;20485;-78
2023/04/14 05:47:23;;;;;;;1.50;1.30;;;5.60;98.20;;;;;;5003978;28;20483;-81
2023/04/14 05:49:50;;;;;;;1.50;1.30;;;5.80;98.20;;;;;;5001129;28;20494;-77
2023/04/14 05:52:17;;;;;;;1.50;1.27;;;5.90;98.20;;;;;;5018948;28;20581;-79
2023/04/14 05:54:44;;;;;;;1.60;1.30;;;6.20;98.20;;;;;;5027661;28;20479;-78
2023/04/14 05:57:12;;;;;;;1.53;1.30;;;6.30;98.20;;;;;;5023589;28;20486;-81
2023/04/14 05:59:39;;;;;;;1.50;1.30;;;6.50;98.20;;;;;;5026661;28;20459;-79
2023/04/14 06:02:06;;;;;;;1.53;1.30;;;6.70;98.20;;;;;;5024338;28;21015;-78
2023/04/14 06:04:33;;;;;;;1.50;1.30;;;6.90;98.20;;;;;;5032401;28;20480;-81
2023/04/14 06:07:01;;;;;;;1.50;1.30;;;7.20;98.20;;;;;;5022678;28;20514;-80
2023/04/14 06:09:28;;;;;;;1.53;1.30;;;7.50;98.20;;;;;;5026133;28;20483;-77
2023/04/14 06:11:55;;;;;;;1.53;1.30;;;7.80;98.20;;;;;;5009678;28;20484;-76
2023/04/14 06:14:23;;;;;;;1.50;1.20;;;8.10;98.20;;;;;;5018372;28;20900;-76
2023/04/14 06:16:50;;;;;;;1.50;1.20;;;8.30;98.20;;;;;;5014815;28;20573;-77
2023/04/14 06:19:18;;;;;;;1.60;1.30;;;8.50;98.20;;;;;;5024558;28;20943;-77
2023/04/14 06:21:45;;;;;;;1.53;1.30;;;8.60;98.20;;;;;;5016308;28;20490;-76
2023/04/14 06:24:12;;;;;;;1.53;1.23;;;8.70;98.20;;;;;;5025413;28;20504;-76
2023/04/14 06:26:39;;;;;;;1.50;1.20;;;8.80;98.20;;;;;;5020900;28;20482;-77
2023/04/14 06:29:06;;;;;;;1.50;1.20;;;8.90;98.20;;;;;;5035719;28;20483;-76
2023/04/14 06:31:35;;;;;;;1.53;1.40;;;9.00;98.20;;;;;;5018326;28;20479;-76
2023/04/14 06:34:02;;;;;;;1.53;1.20;;;9.10;98.20;;;;;;5029117;28;20877;-76
2023/04/14 06:36:28;;;;;;;1.50;1.30;;;9.10;98.20;;;;;;5017950;28;21097;-76
2023/04/14 06:38:56;;;;;;;1.50;1.20;;;9.20;98.20;;;;;;5026730;28;20482;-76
2023/04/14 06:41:23;;;;;;;1.50;1.17;;;9.30;98.20;;;;;;5020176;28;20879;-76
2023/04/14 06:43:50;;;;;;;1.50;1.30;;;9.60;98.20;;;;;;5036783;28;20460;-76
2023/04/14 06:46:17;;;;;;;1.50;1.20;;;9.90;98.20;;;;;;5017497;28;20487;-76
2023/04/14 06:48:45;;;;;;;1.50;1.20;;;10.00;98.20;;;;;;5029634;28;20488;-77
2023/04/14 06:51:12;;;;;;;1.50;1.20;;;10.20;98.20;;;;;;5014058;28;20484;-76
2023/04/14 06:53:39;;;;;;;1.50;1.20;;;10.40;98.20;;;;;;5031252;28;20716;-76
2023/04/14 06:56:07;;;;;;;1.50;1.10;;;10.50;98.20;;;;;;5012304;28;20568;-76
2023/04/14 06:58:33;;;;;;;1.50;1.10;;;10.60;98.20;;;;;;5029606;28;20455;-76
2023/04/14 07:01:02;;;;;;;1.50;1.10;;;10.70;98.20;;;;;;5011274;28;20465;-76
2023/04/14 07:03:30;;;;;;;1.50;1.20;;;11.00;98.20;;;;;;5030410;28;20954;-76
2023/04/14 07:06:04;;;;;;;1.50;1.10;;;11.10;98.20;;;;;;5012772;28;20541;-77
2023/04/14 07:08:33;;;;;;;1.50;1.10;;;11.30;98.20;;;;;;5033352;28;20456;-77
2023/04/14 07:11:01;;;;;;;1.50;1.20;;;11.50;98.20;;;;;;5016980;28;20473;-77
2023/04/14 07:13:28;;;;;;;1.50;1.00;;;11.80;98.20;;;;;;5028491;28;20517;-76
2023/04/14 07:15:55;;;;;;;1.50;1.10;;;12.00;98.20;;;;;;5020191;28;20972;-76
2023/04/14 07:18:22;;;;;;;1.50;1.00;;;12.20;98.20;;;;;;5025515;28;20999;-77
2023/04/14 07:20:49;;;;;;;1.50;1.10;;;12.20;98.20;;;;;;5019150;28;20790;-76
2023/04/14 07:23:18;;;;;;;1.50;1.10;;;12.40;98.20;;;;;;5032059;28;20526;-79
2023/04/14 07:25:45;;;;;;;1.50;1.07;;;12.50;98.20;;;;;;5030175;28;20479;-79
2023/04/14 07:28:12;;;;;;;1.50;1.00;;;12.60;98.00;;;;;;5000070;28;20563;-79
2023/04/14 07:30:39;;;;;;;1.50;1.00;;;12.80;98.20;;;;;;5009330;28;20574;-78
2023/04/14 07:33:05;;;;;;;1.50;1.00;;;13.00;96.70;;;;;;5010002;28;20506;-77
2023/04/14 07:35:32;;;;;;;1.50;1.10;;;13.20;97.50;;;;;;5010569;28;20491;-78
2023/04/14 07:37:59;;;;;;;2.23;2.03;;;13.30;95.80;;;;;;5013136;28;20600;-78
2023/04/14 07:40:27;;;;;;;1.50;1.00;;;13.40;96.00;;;;;;5008134;28;20467;-79
2023/04/14 07:42:54;;;;;;;1.50;1.00;;;13.50;94.50;;;;;;5009154;28;20494;-77
2023/04/14 07:45:21;;;;;;;1.50;1.00;;;13.50;95.20;;;;;;5010931;28;21025;-77
2023/04/14 07:47:48;;;;;;;1.50;1.00;;;13.60;95.60;;;;;;5012527;28;20498;-78
2023/04/14 07:50:26;;;;;;;1.50;1.00;;;13.70;96.60;;;;;;5013602;28;20483;-75
2023/04/14 07:52:52;;;;;;;1.50;1.07;;;13.90;94.80;;;;;;5028874;28;20478;-79
2023/04/14 07:55:19;;;;;;;1.50;1.00;;;14.20;94.20;;;;;;5025100;28;20870;-78
2023/04/14 07:57:47;;;;;;;1.50;1.00;;;14.40;94.20;;;;;;5019827;28;20524;-76
2023/04/14 08:00:16;;;;;;;1.50;1.00;;;14.70;93.70;;;;;;5028163;28;20455;-75
2023/04/14 08:02:43;;;;;;;1.50;0.90;;;14.80;91.50;;;;;;5019578;28;20510;-78
2023/04/14 08:05:10;;;;;;;1.50;0.90;;;14.90;91.90;;;;;;5025188;28;20487;-78
2023/04/14 08:07:37;;;;;;;1.47;0.90;;;15.10;91.70;;;;;;5024894;28;20494;-79
2023/04/14 08:10:04;;;;;;;1.50;1.00;;;15.30;90.80;;;;;;5025991;28;20488;-78
2023/04/14 08:12:31;;;;;;;1.50;1.00;;;15.50;90.90;;;;;;5012486;28;20903;-78
2023/04/14 08:14:59;;;;;;;1.50;1.00;;;15.60;89.10;;;;;;5023946;28;20494;-78
2023/04/14 08:17:26;;;;;;;1.47;0.90;;;15.70;89.40;;;;;;5022597;28;20486;-79
2023/04/14 08:19:53;;;;;;;1.50;0.93;;;15.60;89.80;;;;;;5026183;28;20465;-78
2023/04/14 08:22:20;;;;;;;1.50;0.90;;;15.60;88.70;;;;;;5017598;28;20487;-76
2023/04/14 08:24:47;;;;;;;1.50;1.10;;;15.40;88.50;;;;;;5022952;28;21205;-79
2023/04/14 08:27:14;;;;;;;1.47;0.90;;;15.20;88.30;;;;;;5022566;28;20485;-77
2023/04/14 08:29:41;;;;;;;1.50;1.00;;;15.00;90.30;;;;;;5027959;28;20570;-78
2023/04/14 08:32:09;;;;;;;1.47;0.90;;;15.10;88.80;;;;;;5025782;28;20706;-78
2023/04/14 08:34:36;;;;;;;1.50;0.90;;;15.20;88.60;;;;;;5029717;28;20490;-78
2023/04/14 08:37:03;;;;;;;1.47;0.90;;;15.10;88.60;;;;;;5020639;28;20908;-76
2023/04/14 08:39:29;;;;;;;1.50;1.00;;;15.20;88.50;;;;;;5031559;28;20455;-78
2023/04/14 08:41:57;;;;;;;1.50;1.10;;;15.40;88.70;;;;;;5021366;28;20490;-76
2023/04/14 08:44:24;;;;;;;1.50;1.00;;;15.40;86.90;;;;;;5028603;28;21131;-77
2023/04/14 08:46:52;;;;;;;1.50;0.97;;;15.30;86.50;;;;;;5022770;28;20932;-78
2023/04/14 08:49:28;;;;;;;1.43;0.90;;;15.30;86.80;;;;;;5030325;28;20491;-77
2023/04/14 08:51:57;;;;;;;1.50;1.00;;;15.50;87.50;;;;;;5020283;28;20477;-78
2023/04/14 08:54:26;;;;;;;1.50;0.90;;;15.70;86.00;;;;;;5028232;28;20534;-77
2023/04/14 08:56:57;;;;;;;1.50;1.00;;;15.60;84.70;;;;;;5021064;28;20485;-79
2023/04/14 08:59:25;;;;;;;1.47;0.90;;;15.70;83.80;;;;;;5032548;28;20533;-78
2023/04/14 09:01:53;;;;;;;1.47;1.00;;;15.60;82.90;;;;;;5023657;28;20510;-79
2023/04/14 09:04:21;;;;;;;1.40;1.00;;;15.50;84.20;;;;;;5031842;28;20463;-77
2023/04/14 09:06:48;;;;;;;1.47;0.90;;;15.60;85.00;;;;;;5016172;28;20475;-79
2023/04/14 09:09:15;;;;;;;1.50;0.90;;;15.70;83.50;;;;;;5019583;28;20500;-78
2023/04/14 09:11:42;;;;;;;1.43;0.90;;;15.80;82.70;;;;;;5015834;28;21024;-76
2023/04/14 09:14:10;;;;;;;1.50;1.00;;;15.80;83.40;;;;;;5025544;28;20473;-78
2023/04/14 09:16:37;;;;;;;1.47;0.90;;;15.80;83.20;;;;;;5013324;28;20495;-79
2023/04/14 09:19:04;;;;;;;1.47;0.90;;;15.80;82.10;;;;;;5020349;28;20976;-78
2023/04/14 09:21:33;;;;;;;1.47;0.90;;;15.90;82.30;;;;;;5018131;28;20496;-76
2023/04/14 09:24:00;;;;;;;1.47;0.90;;;16.10;82.00;;;;;;5026687;28;20861;-78
2023/04/14 09:26:27;;;;;;;1.47;0.90;;;16.20;80.20;;;;;;5014222;28;20530;-79
2023/04/14 09:28:54;;;;;;;1.50;1.00;;;16.10;80.20;;;;;;5022654;28;21022;-76
2023/04/14 09:31:21;;;;;;;1.50;0.90;;;16.20;80.00;;;;;;5017662;28;21025;-75
2023/04/14 09:33:49;;;;;;;1.50;1.00;;;16.20;81.10;;;;;;5026814;28;20849;-75
2023/04/14 09:36:20;;;;;;;1.50;0.90;;;16.20;82.50;;;;;;5015871;28;20502;-75
2023/04/14 09:38:50;;;;;;;1.50;0.90;;;16.30;79.70;;;;;;5029925;28;20462;-75
2023/04/14 09:41:18;;;;;;;1.47;0.90;;;16.40;79.40;;;;;;5018812;28;20514;-76
2023/04/14 09:43:48;;;;;;;1.50;1.00;;;16.50;79.90;;;;;;5025957;28;20883;-76
2023/04/14 09:46:15;;;;;;;1.47;0.90;;;16.80;80.60;;;;;;5010047;28;20482;-76
2023/04/14 09:48:51;;;;;;;1.50;0.90;;;16.90;79.50;;;;;;5037998;28;20851;-77
2023/04/14 09:51:22;;;;;;;1.50;1.00;;;16.90;81.00;;;;;;5020099;28;20494;-77
2023/04/14 09:53:53;;;;;;;1.50;1.00;;;16.70;78.50;;;;;;5032305;28;21209;-76
2023/04/14 09:56:25;;;;;;;1.47;0.90;;;16.60;77.50;;;;;;5014363;28;20871;-77
2023/04/14 09:58:56;;;;;;;1.50;1.00;;;16.50;78.20;;;;;;5031601;28;20459;-77
2023/04/14 10:01:24;;;;;;;1.43;0.90;;;16.50;78.00;;;;;;5020727;28;20479;-75
2023/04/14 10:03:51;;;;;;;1.47;0.90;;;16.70;79.00;;;;;;5030075;28;20517;-77
2023/04/14 10:06:18;;;;;;;1.50;0.90;;;16.90;77.00;;;;;;5019725;28;20528;-76
2023/04/14 10:08:47;;;;;;;1.50;0.90;;;17.00;77.40;;;;;;5031769;28;20512;-76
2023/04/14 10:11:19;;;;;;;1.50;0.90;;;17.00;76.60;;;;;;5018309;28;20502;-76
2023/04/14 10:13:47;;;;;;;1.77;1.67;;;16.90;76.30;;;;;;5028198;28;20988;-77
2023/04/14 10:16:15;;;;;;;1.43;0.87;;;16.90;77.30;;;;;;5019105;28;20496;-76
2023/04/14 10:18:42;;;;;;;1.47;0.90;;;17.00;77.40;;;;;;5032951;28;20471;-74
2023/04/14 10:21:10;;;;;;;1.50;0.90;;;17.20;76.80;;;;;;5021662;28;20996;-76
2023/04/14 10:23:38;;;;;;;1.47;0.90;;;17.10;75.70;;;;;;5037622;28;20950;-75
2023/04/14 10:26:07;;;;;;;1.47;0.90;;;17.20;76.70;;;;;;5015960;28;20476;-74
2023/04/14 10:28:37;;;;;;;1.47;0.90;;;17.20;74.30;;;;;;5034638;28;20981;-74
2023/04/14 10:31:14;;;;;;;1.60;1.30;;;17.20;73.10;;;;;;5016018;28;20480;-75
2023/04/14 10:33:42;;;;;;;1.50;0.90;;;17.10;74.00;;;;;;5033096;28;20459;-74
2023/04/14 10:36:09;;;;;;;1.43;0.90;;;16.80;72.90;;;;;;5019780;28;20589;-74
2023/04/14 10:38:44;;;;;;;1.50;0.90;;;16.80;74.20;;;;;;5027895;28;20455;-76
2023/04/14 10:41:12;;;;;;;1.47;0.90;;;16.90;74.70;;;;;;5012631;28;20470;-75
2023/04/14 10:43:40;;;;;;;1.47;0.90;;;17.10;72.80;;;;;;5021703;28;20467;-74
2023/04/14 10:46:08;;;;;;;1.50;0.90;;;17.30;74.00;;;;;;5012553;28;20491;-76
2023/04/14 10:48:38;;;;;;;1.50;1.00;;;17.50;72.20;;;;;;5029094;28;20459;-76
2023/04/14 10:51:08;;;;;;;1.40;0.90;;;17.50;72.30;;;;;;5011555;28;20512;-76
2023/04/14 10:53:43;;;;;;;2.23;2.03;;;17.70;71.40;;;;;;5031550;28;20471;-75
2023/04/14 10:56:11;;;;;;;1.47;0.90;;;17.90;72.00;;;;;;5018389;28;20485;-75
2023/04/14 10:58:38;;;;;;;1.50;0.90;;;18.30;71.70;;;;;;5029799;28;20463;-75
2023/04/14 11:01:25;;;;;;;1.47;0.90;;;18.60;68.60;;;;;;5018348;28;20844;-75
2023/04/14 11:03:54;;;;;;;1.43;0.90;;;19.00;67.10;;;;;;5029100;28;20455;-76
2023/04/14 11:06:48;;;;;;;1.50;0.90;;;19.00;67.90;;;;;;5017197;28;20805;-76
2023/04/14 11:09:26;;;;;;;1.43;0.90;;;18.90;68.40;;;;;;5028450;28;20483;-76
2023/04/14 11:11:56;;;;;;;1.50;0.90;;;19.10;70.50;;;;;;5013394;28;20479;-75
2023/04/14 11:14:27;;;;;;;1.40;0.90;;;19.20;67.60;;;;;;5022698;28;20470;-75
2023/04/14 11:17:00;;;;;;;1.50;0.90;;;19.30;68.00;;;;;;5018334;28;20482;-77
2023/04/14 11:19:27;;;;;;;1.40;0.90;;;19.50;65.90;;;;;;5029456;28;20463;-77
2023/04/14 11:21:55;;;;;;;1.50;0.90;;;19.40;66.20;;;;;;5013499;28;20483;-74
2023/04/14 11:24:22;;;;;;;1.47;0.90;;;19.30;67.10;;;;;;5020793;28;20467;-76
2023/04/14 11:26:52;;;;;;;1.50;0.90;;;19.50;68.50;;;;;;5017749;28;20622;-75
2023/04/14 11:29:19;;;;;;;1.50;0.90;;;19.60;67.00;;;;;;5029763;28;20510;-77
2023/04/14 11:31:46;;;;;;;1.50;0.90;;;19.60;67.70;;;;;;5013436;28;20482;-74
2023/04/14 11:34:14;;;;;;;1.43;0.90;;;19.80;67.60;;;;;;5023423;28;20850;-74
2023/04/14 11:36:42;;;;;;;1.50;0.90;;;20.00;65.70;;;;;;5021649;28;20485;-75
2023/04/14 11:39:09;;;;;;;1.43;0.90;;;20.20;64.70;;;;;;5034398;28;20923;-75
2023/04/14 11:41:36;;;;;;;1.50;0.90;;;20.30;64.50;;;;;;5019513;28;20486;-75
2023/04/14 11:44:03;;;;;;;1.50;0.90;;;20.50;65.90;;;;;;5027316;28;20464;-75
2023/04/14 11:46:30;;;;;;;1.47;0.90;;;20.80;64.10;;;;;;5017965;28;20495;-75
2023/04/14 11:48:57;;;;;;;1.50;0.87;;;21.00;64.40;;;;;;5027885;28;20524;-75
2023/04/14 11:51:32;;;;;;;1.50;0.90;;;21.10;65.10;;;;;;5017443;28;21029;-74
2023/04/14 11:54:00;;;;;;;1.47;0.90;;;21.40;64.80;;;;;;5027176;28;20463;-76
2023/04/14 11:56:27;;;;;;;1.50;0.90;;;21.40;62.30;;;;;;5018207;28;21014;-75
2023/04/14 11:59:00;;;;;;;1.50;0.80;;;21.30;63.40;;;;;;5022149;28;20471;-77
2023/04/14 12:01:28;;;;;;;1.47;0.87;;;21.00;63.40;;;;;;5014193;28;20566;-75
2023/04/14 12:03:56;;;;;;;1.47;0.90;;;21.00;64.00;;;;;;5025562;28;20467;-73
2023/04/14 12:06:23;;;;;;;1.47;0.90;;;21.10;62.40;;;;;;5016792;28;20937;-74
2023/04/14 12:08:55;;;;;;;1.47;0.80;;;21.20;62.50;;;;;;5032626;28;20546;-75
2023/04/14 12:11:22;;;;;;;1.50;0.87;;;21.00;60.80;;;;;;5009698;28;20987;-74
2023/04/14 12:13:51;;;;;;;1.50;0.87;;;20.70;63.10;;;;;;5015786;28;20471;-74
2023/04/14 12:16:18;;;;;;;1.47;0.90;;;20.90;63.90;;;;;;5012959;28;20490;-75
2023/04/14 12:18:45;;;;;;;1.47;0.90;;;21.00;63.00;;;;;;5016761;28;21019;-74
2023/04/14 12:21:17;;;;;;;1.47;0.80;;;21.20;63.30;;;;;;5012662;28;20580;-74
2023/04/14 12:23:47;;;;;;;1.47;0.90;;;21.50;63.00;;;;;;5028135;28;20463;-75
2023/04/14 12:26:16;;;;;;;1.47;0.90;;;21.70;61.10;;;;;;5012627;28;20490;-74
2023/04/14 12:28:44;;;;;;;1.50;0.90;;;21.90;61.60;;;;;;5026178;28;20473;-74
2023/04/14 12:31:11;;;;;;;1.57;1.20;;;21.70;61.60;;;;;;5012349;28;21476;-73
2023/04/14 12:33:38;;;;;;;1.47;0.90;;;21.70;61.30;;;;;;5027805;28;20455;-74
2023/04/14 12:36:06;;;;;;;1.43;0.90;;;21.80;60.70;;;;;;5008769;28;20484;-76
2023/04/14 12:38:34;;;;;;;1.47;0.90;;;21.90;63.50;;;;;;5027236;28;20511;-76
2023/04/14 12:41:01;;;;;;;1.43;0.87;;;22.00;62.10;;;;;;5010258;28;20466;-76
2023/04/14 12:43:30;;;;;;;1.47;0.80;;;21.90;59.20;;;;;;5016486;28;20498;-76
2023/04/14 12:45:58;;;;;;;1.50;0.90;;;21.90;59.70;;;;;;5016145;28;20651;-75
2023/04/14 12:48:43;;;;;;;1.47;0.90;;;21.90;59.90;;;;;;5031416;28;20474;-75
2023/04/14 12:51:11;;;;;;;1.40;0.87;;;22.10;62.00;;;;;;5014756;28;20490;-76
2023/04/14 12:53:39;;;;;;;1.43;0.90;;;21.90;58.90;;;;;;5023846;28;20830;-76
2023/04/14 12:56:07;;;;;;;1.43;0.90;;;21.60;60.10;;;;;;5015970;28;20989;-76
2023/04/14 12:58:36;;;;;;;1.50;0.90;;;21.40;60.90;;;;;;5023364;28;20482;-76
2023/04/14 13:01:04;;;;;;;1.47;0.80;;;21.10;58.00;;;;;;5015304;28;20517;-75